sensor_id;sensor_type;location;lat;lon;timestamp;pressure;altitude;pressure_sealevel;temperature;humidity
2178;BME280;1095;50.992;6.798;2023-02-01T00:17:47;101384.50;;;5.94;100.00
2178;BME280;1095;50.992;6.798;2023-02-01T00:35:28;101359.59;;;5.92;100.00
2178;BME280;1095;50.992;6.798;2023-02-01T00:54:58;101355.13;;;5.68;96.95
2178;BME280;1095;50.992;6.798;2023-02-01T00:57:25;101364.81;;;5.66;96.21
2178;BME280;1095;50.992;6.798;2023-02-01T00:59:51;101353.91;;;5.61;95.90
2178;BME280;1095;50.992;6.798;2023-02-01T01:02:18;101330.56;;;5.61;95.48
2178;BME280;1095;50.992;6.798;2023-02-01T01:04:44;101326.19;;;5.62;94.83
2178;BME280;1095;50.992;6.798;2023-02-01T01:07:12;101331.38;;;5.62;94.67
2178;BME280;1095;50.992;6.798;2023-02-01T01:09:39;101311.56;;;5.61;94.52
2178;BME280;1095;50.992;6.798;2023-02-01T01:12:06;101321.31;;;5.57;94.97
2178;BME280;1095;50.992;6.798;2023-02-01T01:14:32;101333.06;;;5.50;95.15
2178;BME280;1095;50.992;6.798;2023-02-01T01:16:59;101340.34;;;5.45;95.27
2178;BME280;1095;50.992;6.798;2023-02-01T01:19:26;101346.78;;;5.40;95.23
2178;BME280;1095;50.992;6.798;2023-02-01T01:21:52;101355.06;;;5.32;95.13
2178;BME280;1095;50.992;6.798;2023-02-01T01:24:20;101348.00;;;5.34;95.00
2178;BME280;1095;50.992;6.798;2023-02-01T01:26:47;101360.88;;;5.23;95.18
2178;BME280;1095;50.992;6.798;2023-02-01T01:29:13;101375.03;;;5.19;95.13
2178;BME280;1095;50.992;6.798;2023-02-01T01:31:40;101368.19;;;5.18;95.48
2178;BME280;1095;50.992;6.798;2023-02-01T01:34:08;101369.41;;;5.12;95.54
2178;BME280;1095;50.992;6.798;2023-02-01T01:36:34;101373.47;;;5.16;95.27
2178;BME280;1095;50.992;6.798;2023-02-01T01:39:03;101364.53;;;5.08;95.99
2178;BME280;1095;50.992;6.798;2023-02-01T01:41:32;101367.31;;;4.92;96.08
2178;BME280;1095;50.992;6.798;2023-02-01T01:44:00;101360.88;;;4.85;95.95
2178;BME280;1095;50.992;6.798;2023-02-01T01:46:29;101366.34;;;4.80;96.36
2178;BME280;1095;50.992;6.798;2023-02-01T01:49:02;101361.47;;;4.76;96.62
2178;BME280;1095;50.992;6.798;2023-02-01T01:51:35;101359.50;;;4.79;97.19
2178;BME280;1095;50.992;6.798;2023-02-01T01:54:05;101354.41;;;4.78;97.66
2178;BME280;1095;50.992;6.798;2023-02-01T01:56:34;101358.56;;;4.80;97.57
2178;BME280;1095;50.992;6.798;2023-02-01T01:59:02;101349.66;;;4.84;97.51
2178;BME280;1095;50.992;6.798;2023-02-01T02:01:31;101347.69;;;4.88;97.23
2178;BME280;1095;50.992;6.798;2023-02-01T02:03:58;101348.75;;;4.98;97.61
2178;BME280;1095;50.992;6.798;2023-02-01T02:06:37;101337.75;;;4.94;97.04
2178;BME280;1095;50.992;6.798;2023-02-01T02:09:05;101337.34;;;5.00;97.05
2178;BME280;1095;50.992;6.798;2023-02-01T02:11:32;101344.38;;;4.98;97.27
2178;BME280;1095;50.992;6.798;2023-02-01T02:14:00;101334.13;;;4.97;97.29
2178;BME280;1095;50.992;6.798;2023-02-01T02:16:38;101336.19;;;5.05;97.18
2178;BME280;1095;50.992;6.798;2023-02-01T02:19:27;101343.97;;;5.05;96.68
2178;BME280;1095;50.992;6.798;2023-02-01T02:22:16;101325.22;;;5.14;96.71
2178;BME280;1095;50.992;6.798;2023-02-01T02:25:12;101320.03;;;5.14;97.17
2178;BME280;1095;50.992;6.798;2023-02-01T02:27:45;101323.44;;;5.14;97.10
2178;BME280;1095;50.992;6.798;2023-02-01T02:30:50;101324.38;;;5.13;96.61
2178;BME280;1095;50.992;6.798;2023-02-01T02:33:50;101324.56;;;5.23;97.10
2178;BME280;1095;50.992;6.798;2023-02-01T02:36:25;101316.03;;;5.21;97.13
2178;BME280;1095;50.992;6.798;2023-02-01T02:39:04;101315.66;;;5.14;97.82
2178;BME280;1095;50.992;6.798;2023-02-01T02:41:41;101320.31;;;5.22;97.74
2178;BME280;1095;50.992;6.798;2023-02-01T02:44:33;101329.13;;;5.32;97.58
2178;BME280;1095;50.992;6.798;2023-02-01T02:47:23;101321.22;;;5.33;97.85
2178;BME280;1095;50.992;6.798;2023-02-01T02:49:58;101323.94;;;5.45;97.51
2178;BME280;1095;50.992;6.798;2023-02-01T02:52:51;101302.34;;;5.44;97.42
2178;BME280;1095;50.992;6.798;2023-02-01T02:55:39;101295.69;;;5.40;97.52
2178;BME280;1095;50.992;6.798;2023-02-01T02:58:07;101282.81;;;5.39;97.32
2178;BME280;1095;50.992;6.798;2023-02-01T03:00:53;101302.03;;;5.36;97.25
2178;BME280;1095;50.992;6.798;2023-02-01T03:03:39;101281.28;;;5.36;97.82
2178;BME280;1095;50.992;6.798;2023-02-01T03:06:25;101295.47;;;5.43;97.43
2178;BME280;1095;50.992;6.798;2023-02-01T03:08:53;101285.00;;;5.45;97.74
2178;BME280;1095;50.992;6.798;2023-02-01T03:11:23;101287.59;;;5.45;98.08
2178;BME280;1095;50.992;6.798;2023-02-01T03:14:10;101282.81;;;5.39;98.36
2178;BME280;1095;50.992;6.798;2023-02-01T03:16:41;101286.22;;;5.52;98.33
2178;BME280;1095;50.992;6.798;2023-02-01T03:19:14;101290.38;;;5.54;98.13
2178;BME280;1095;50.992;6.798;2023-02-01T03:21:44;101294.22;;;5.49;97.96
2178;BME280;1095;50.992;6.798;2023-02-01T03:24:14;101283.94;;;5.47;98.28
2178;BME280;1095;50.992;6.798;2023-02-01T03:26:47;101282.81;;;5.51;97.98
2178;BME280;1095;50.992;6.798;2023-02-01T03:29:18;101290.47;;;5.53;97.81
2178;BME280;1095;50.992;6.798;2023-02-01T03:31:47;101291.53;;;5.50;97.73
2178;BME280;1095;50.992;6.798;2023-02-01T03:34:14;101276.88;;;5.49;97.68
2178;BME280;1095;50.992;6.798;2023-02-01T03:36:46;101278.75;;;5.47;97.47
2178;BME280;1095;50.992;6.798;2023-02-01T03:39:19;101282.63;;;5.42;97.64
2178;BME280;1095;50.992;6.798;2023-02-01T03:41:50;101284.59;;;5.38;98.23
2178;BME280;1095;50.992;6.798;2023-02-01T03:44:21;101282.09;;;5.24;98.50
2178;BME280;1095;50.992;6.798;2023-02-01T03:46:51;101283.66;;;5.26;98.10
2178;BME280;1095;50.992;6.798;2023-02-01T03:49:23;101266.44;;;5.25;98.14
2178;BME280;1095;50.992;6.798;2023-02-01T03:51:53;101264.06;;;5.22;97.92
2178;BME280;1095;50.992;6.798;2023-02-01T03:54:21;101258.34;;;5.30;97.42
2178;BME280;1095;50.992;6.798;2023-02-01T03:56:50;101250.66;;;5.28;97.93
2178;BME280;1095;50.992;6.798;2023-02-01T03:59:18;101267.06;;;5.29;97.84
2178;BME280;1095;50.992;6.798;2023-02-01T04:01:45;101253.78;;;5.21;97.17
2178;BME280;1095;50.992;6.798;2023-02-01T04:04:12;101268.59;;;5.31;97.09
2178;BME280;1095;50.992;6.798;2023-02-01T04:06:45;101265.91;;;5.33;97.25
2178;BME280;1095;50.992;6.798;2023-02-01T04:09:13;101265.69;;;5.36;96.47
2178;BME280;1095;50.992;6.798;2023-02-01T04:11:39;101272.03;;;5.32;96.35
2178;BME280;1095;50.992;6.798;2023-02-01T04:14:06;101270.25;;;5.32;96.67
2178;BME280;1095;50.992;6.798;2023-02-01T04:16:33;101285.94;;;5.31;96.63
2178;BME280;1095;50.992;6.798;2023-02-01T04:19:00;101278.88;;;5.33;96.16
2178;BME280;1095;50.992;6.798;2023-02-01T04:21:27;101285.53;;;5.37;96.40
2178;BME280;1095;50.992;6.798;2023-02-01T04:23:54;101271.41;;;5.41;96.01
2178;BME280;1095;50.992;6.798;2023-02-01T04:26:22;101264.56;;;5.40;95.46
2178;BME280;1095;50.992;6.798;2023-02-01T04:28:48;101274.94;;;5.40;95.54
2178;BME280;1095;50.992;6.798;2023-02-01T04:31:17;101266.84;;;5.32;95.65
2178;BME280;1095;50.992;6.798;2023-02-01T04:33:50;101251.69;;;5.26;95.94
2178;BME280;1095;50.992;6.798;2023-02-01T04:36:17;101249.09;;;5.26;95.51
2178;BME280;1095;50.992;6.798;2023-02-01T04:38:46;101247.06;;;5.18;95.70
2178;BME280;1095;50.992;6.798;2023-02-01T04:41:13;101242.41;;;5.11;95.52
2178;BME280;1095;50.992;6.798;2023-02-01T04:43:42;101245.09;;;5.09;95.48
2178;BME280;1095;50.992;6.798;2023-02-01T04:46:09;101240.75;;;5.10;95.38
2178;BME280;1095;50.992;6.798;2023-02-01T04:48:35;101229.13;;;5.03;95.34
2178;BME280;1095;50.992;6.798;2023-02-01T04:51:02;101222.69;;;4.95;95.59
2178;BME280;1095;50.992;6.798;2023-02-01T04:53:29;101222.59;;;4.84;96.20
2178;BME280;1095;50.992;6.798;2023-02-01T04:55:56;101227.25;;;4.79;95.76
2178;BME280;1095;50.992;6.798;2023-02-01T04:58:22;101221.88;;;4.82;96.58
2178;BME280;1095;50.992;6.798;2023-02-01T05:00:51;101199.72;;;4.65;96.56
2178;BME280;1095;50.992;6.798;2023-02-01T05:03:17;101214.41;;;4.78;96.47
2178;BME280;1095;50.992;6.798;2023-02-01T05:05:44;101216.38;;;4.74;95.95
2178;BME280;1095;50.992;6.798;2023-02-01T05:08:13;101204.47;;;4.72;96.21
2178;BME280;1095;50.992;6.798;2023-02-01T05:10:39;101238.56;;;4.78;95.63
2178;BME280;1095;50.992;6.798;2023-02-01T05:13:07;101220.13;;;4.70;95.87
2178;BME280;1095;50.992;6.798;2023-02-01T05:15:53;101230.28;;;4.73;95.26
2178;BME280;1095;50.992;6.798;2023-02-01T05:18:19;101246.66;;;4.74;95.49
2178;BME280;1095;50.992;6.798;2023-02-01T05:20:46;101236.81;;;4.66;95.01
2178;BME280;1095;50.992;6.798;2023-02-01T05:23:13;101248.75;;;4.69;95.45
2178;BME280;1095;50.992;6.798;2023-02-01T05:25:40;101238.38;;;4.69;95.31
2178;BME280;1095;50.992;6.798;2023-02-01T05:28:07;101247.94;;;4.68;95.40
2178;BME280;1095;50.992;6.798;2023-02-01T05:30:39;101252.59;;;4.63;95.23
2178;BME280;1095;50.992;6.798;2023-02-01T05:33:07;101237.13;;;4.61;95.10
2178;BME280;1095;50.992;6.798;2023-02-01T05:35:34;101235.16;;;4.65;94.93
2178;BME280;1095;50.992;6.798;2023-02-01T05:38:01;101240.78;;;4.72;95.20
2178;BME280;1095;50.992;6.798;2023-02-01T05:40:27;101235.44;;;4.73;94.41
2178;BME280;1095;50.992;6.798;2023-02-01T05:42:54;101233.19;;;4.69;95.11
2178;BME280;1095;50.992;6.798;2023-02-01T05:45:20;101250.72;;;4.65;94.40
2178;BME280;1095;50.992;6.798;2023-02-01T05:47:47;101241.38;;;4.62;94.33
2178;BME280;1095;50.992;6.798;2023-02-01T05:50:15;101241.59;;;4.72;94.66
2178;BME280;1095;50.992;6.798;2023-02-01T05:52:42;101241.28;;;4.64;94.89
2178;BME280;1095;50.992;6.798;2023-02-01T05:55:08;101232.38;;;4.68;94.33
2178;BME280;1095;50.992;6.798;2023-02-01T05:57:35;101233.91;;;4.58;93.86
2178;BME280;1095;50.992;6.798;2023-02-01T06:00:03;101222.09;;;4.54;94.87
2178;BME280;1095;50.992;6.798;2023-02-01T06:02:29;101230.09;;;4.63;94.40
2178;BME280;1095;50.992;6.798;2023-02-01T06:04:56;101232.56;;;4.65;94.14
2178;BME280;1095;50.992;6.798;2023-02-01T06:07:24;101249.69;;;4.68;93.82
2178;BME280;1095;50.992;6.798;2023-02-01T06:09:51;101249.47;;;4.58;94.35
2178;BME280;1095;50.992;6.798;2023-02-01T06:12:17;101247.59;;;4.73;94.10
2178;BME280;1095;50.992;6.798;2023-02-01T06:14:44;101236.09;;;4.64;94.00
2178;BME280;1095;50.992;6.798;2023-02-01T06:17:10;101229.13;;;4.52;94.39
2178;BME280;1095;50.992;6.798;2023-02-01T06:19:37;101239.50;;;4.52;94.29
2178;BME280;1095;50.992;6.798;2023-02-01T06:22:05;101245.41;;;4.54;94.36
2178;BME280;1095;50.992;6.798;2023-02-01T06:24:33;101243.03;;;4.51;94.29
2178;BME280;1095;50.992;6.798;2023-02-01T06:27:00;101242.31;;;4.49;94.41
2178;BME280;1095;50.992;6.798;2023-02-01T06:29:27;101262.50;;;4.44;95.21
2178;BME280;1095;50.992;6.798;2023-02-01T06:31:53;101250.69;;;4.40;95.13
2178;BME280;1095;50.992;6.798;2023-02-01T06:34:22;101260.13;;;4.41;95.05
2178;BME280;1095;50.992;6.798;2023-02-01T06:36:49;101260.22;;;4.39;95.80
2178;BME280;1095;50.992;6.798;2023-02-01T06:39:16;101269.25;;;4.46;95.80
2178;BME280;1095;50.992;6.798;2023-02-01T06:41:45;101275.78;;;4.52;95.21
2178;BME280;1095;50.992;6.798;2023-02-01T06:44:12;101273.00;;;4.55;95.28
2178;BME280;1095;50.992;6.798;2023-02-01T06:46:39;101278.50;;;4.63;95.29
2178;BME280;1095;50.992;6.798;2023-02-01T06:49:05;101272.47;;;4.75;94.62
2178;BME280;1095;50.992;6.798;2023-02-01T06:51:32;101276.09;;;4.73;94.72
2178;BME280;1095;50.992;6.798;2023-02-01T06:54:00;101264.81;;;4.74;94.21
2178;BME280;1095;50.992;6.798;2023-02-01T06:56:27;101278.84;;;4.71;95.04
2178;BME280;1095;50.992;6.798;2023-02-01T06:59:03;101276.00;;;4.74;95.01
2178;BME280;1095;50.992;6.798;2023-02-01T07:01:33;101266.06;;;4.68;94.99
2178;BME280;1095;50.992;6.798;2023-02-01T07:04:03;101258.59;;;4.63;94.82
2178;BME280;1095;50.992;6.798;2023-02-01T07:06:32;101259.63;;;4.61;94.84
2178;BME280;1095;50.992;6.798;2023-02-01T07:12:37;101248.63;;;4.45;94.95
2178;BME280;1095;50.992;6.798;2023-02-01T07:15:44;101283.50;;;4.66;95.35
2178;BME280;1095;50.992;6.798;2023-02-01T07:18:26;101291.47;;;4.63;95.71
2178;BME280;1095;50.992;6.798;2023-02-01T07:21:10;101302.56;;;4.65;95.79
2178;BME280;1095;50.992;6.798;2023-02-01T07:24:02;101272.47;;;4.50;95.72
2178;BME280;1095;50.992;6.798;2023-02-01T07:26:58;101309.00;;;4.72;95.10
2178;BME280;1095;50.992;6.798;2023-02-01T07:29:53;101291.03;;;4.56;95.75
2178;BME280;1095;50.992;6.798;2023-02-01T07:32:54;101315.81;;;4.73;95.61
2178;BME280;1095;50.992;6.798;2023-02-01T08:24:08;101317.50;;;4.74;95.89
2178;BME280;1095;50.992;6.798;2023-02-01T08:26:35;101320.50;;;4.81;95.21
2178;BME280;1095;50.992;6.798;2023-02-01T08:29:03;101317.72;;;4.84;95.26
2178;BME280;1095;50.992;6.798;2023-02-01T08:31:31;101316.88;;;4.83;95.25
2178;BME280;1095;50.992;6.798;2023-02-01T08:33:59;101313.47;;;4.83;94.81
2178;BME280;1095;50.992;6.798;2023-02-01T08:36:27;101332.03;;;4.89;95.20
2178;BME280;1095;50.992;6.798;2023-02-01T08:38:55;101331.09;;;4.90;95.29
2178;BME280;1095;50.992;6.798;2023-02-01T08:41:25;101343.47;;;4.99;94.52
2178;BME280;1095;50.992;6.798;2023-02-01T08:43:52;101342.63;;;4.99;94.44
2178;BME280;1095;50.992;6.798;2023-02-01T08:46:19;101353.44;;;5.06;94.35
2178;BME280;1095;50.992;6.798;2023-02-01T08:48:46;101362.97;;;5.05;94.00
2178;BME280;1095;50.992;6.798;2023-02-01T08:51:15;101346.56;;;5.05;94.18
2178;BME280;1095;50.992;6.798;2023-02-01T08:53:42;101353.22;;;5.09;93.98
2178;BME280;1095;50.992;6.798;2023-02-01T08:56:10;101370.03;;;5.16;94.34
2178;BME280;1095;50.992;6.798;2023-02-01T08:58:38;101375.97;;;5.18;94.16
2178;BME280;1095;50.992;6.798;2023-02-01T09:01:07;101359.22;;;5.22;93.99
2178;BME280;1095;50.992;6.798;2023-02-01T09:03:34;101357.25;;;5.25;93.38
2178;BME280;1095;50.992;6.798;2023-02-01T09:06:01;101356.31;;;5.26;93.63
2178;BME280;1095;50.992;6.798;2023-02-01T09:08:28;101361.72;;;5.36;93.54
2178;BME280;1095;50.992;6.798;2023-02-01T09:10:58;101353.81;;;5.50;92.70
2178;BME280;1095;50.992;6.798;2023-02-01T09:13:25;101356.06;;;5.67;92.92
2178;BME280;1095;50.992;6.798;2023-02-01T09:15:53;101329.63;;;5.62;91.82
2178;BME280;1095;50.992;6.798;2023-02-01T09:18:20;101348.00;;;5.59;91.96
2178;BME280;1095;50.992;6.798;2023-02-01T09:20:47;101343.63;;;5.60;92.20
2178;BME280;1095;50.992;6.798;2023-02-01T09:23:13;101345.72;;;5.55;92.02
2178;BME280;1095;50.992;6.798;2023-02-01T09:25:40;101331.50;;;5.48;92.31
2178;BME280;1095;50.992;6.798;2023-02-01T09:28:07;101339.19;;;5.49;92.33
2178;BME280;1095;50.992;6.798;2023-02-01T09:30:34;101349.47;;;5.51;92.67
2178;BME280;1095;50.992;6.798;2023-02-01T09:33:03;101334.50;;;5.54;92.44
2178;BME280;1095;50.992;6.798;2023-02-01T09:35:30;101343.22;;;5.53;92.45
2178;BME280;1095;50.992;6.798;2023-02-01T09:37:57;101347.59;;;5.53;92.42
2178;BME280;1095;50.992;6.798;2023-02-01T09:40:23;101344.25;;;5.63;92.38
2178;BME280;1095;50.992;6.798;2023-02-01T09:43:00;101350.44;;;5.74;91.95
2178;BME280;1095;50.992;6.798;2023-02-01T09:45:33;101342.44;;;5.89;91.73
2178;BME280;1095;50.992;6.798;2023-02-01T09:48:10;101328.19;;;5.82;91.34
2178;BME280;1095;50.992;6.798;2023-02-01T09:50:39;101334.66;;;5.89;90.86
2178;BME280;1095;50.992;6.798;2023-02-01T09:53:12;101333.81;;;5.89;91.06
2178;BME280;1095;50.992;6.798;2023-02-01T09:55:45;101323.63;;;5.86;90.64
2178;BME280;1095;50.992;6.798;2023-02-01T09:58:16;101323.94;;;5.81;90.60
2178;BME280;1095;50.992;6.798;2023-02-01T10:00:51;101318.41;;;5.86;90.50
2178;BME280;1095;50.992;6.798;2023-02-01T10:03:20;101324.56;;;5.85;91.06
2178;BME280;1095;50.992;6.798;2023-02-01T10:06:10;101335.88;;;5.84;90.94
2178;BME280;1095;50.992;6.798;2023-02-01T10:08:55;101331.13;;;5.90;90.47
2178;BME280;1095;50.992;6.798;2023-02-01T10:11:32;101323.00;;;5.95;90.59
2178;BME280;1095;50.992;6.798;2023-02-01T10:14:21;101327.44;;;6.06;90.54
2178;BME280;1095;50.992;6.798;2023-02-01T10:16:59;101315.31;;;6.17;89.97
2178;BME280;1095;50.992;6.798;2023-02-01T10:19:36;101317.25;;;6.26;89.39
2178;BME280;1095;50.992;6.798;2023-02-01T10:22:06;101316.81;;;6.32;88.99
2178;BME280;1095;50.992;6.798;2023-02-01T10:24:41;101317.78;;;6.43;88.65
2178;BME280;1095;50.992;6.798;2023-02-01T10:27:17;101307.41;;;6.43;88.42
2178;BME280;1095;50.992;6.798;2023-02-01T10:29:48;101305.19;;;6.49;88.40
2178;BME280;1095;50.992;6.798;2023-02-01T10:32:17;101319.50;;;6.55;88.11
2178;BME280;1095;50.992;6.798;2023-02-01T10:34:49;101302.97;;;6.56;88.11
2178;BME280;1095;50.992;6.798;2023-02-01T10:37:24;101306.00;;;6.50;88.00
2178;BME280;1095;50.992;6.798;2023-02-01T10:39:54;101315.03;;;6.68;87.47
2178;BME280;1095;50.992;6.798;2023-02-01T10:42:25;101313.03;;;6.72;87.21
2178;BME280;1095;50.992;6.798;2023-02-01T10:44:54;101330.94;;;6.98;87.19
2178;BME280;1095;50.992;6.798;2023-02-01T10:47:22;101314.88;;;7.05;86.83
2178;BME280;1095;50.992;6.798;2023-02-01T10:49:55;101292.88;;;7.20;86.01
2178;BME280;1095;50.992;6.798;2023-02-01T10:52:34;101298.91;;;7.20;85.63
2178;BME280;1095;50.992;6.798;2023-02-01T10:58:14;101287.44;;;7.34;85.51
2178;BME280;1095;50.992;6.798;2023-02-01T11:00:45;101303.75;;;7.14;84.98
2178;BME280;1095;50.992;6.798;2023-02-01T11:03:37;101307.41;;;7.00;85.21
2178;BME280;1095;50.992;6.798;2023-02-01T11:06:13;101314.50;;;6.98;85.71
2178;BME280;1095;50.992;6.798;2023-02-01T11:08:46;101295.13;;;7.02;85.85
2178;BME280;1095;50.992;6.798;2023-02-01T11:11:17;101318.63;;;6.89;85.95
2178;BME280;1095;50.992;6.798;2023-02-01T11:13:44;101300.84;;;6.72;85.90
2178;BME280;1095;50.992;6.798;2023-02-01T11:16:13;101293.53;;;6.77;86.50
2178;BME280;1095;50.992;6.798;2023-02-01T11:18:41;101297.94;;;6.88;86.15
2178;BME280;1095;50.992;6.798;2023-02-01T11:21:10;101295.09;;;6.91;86.25
2178;BME280;1095;50.992;6.798;2023-02-01T11:23:42;101284.94;;;6.99;86.46
2178;BME280;1095;50.992;6.798;2023-02-01T11:26:12;101291.22;;;6.96;86.10
2178;BME280;1095;50.992;6.798;2023-02-01T11:28:45;101286.25;;;6.93;85.84
2178;BME280;1095;50.992;6.798;2023-02-01T11:31:14;101290.03;;;7.01;86.06
2178;BME280;1095;50.992;6.798;2023-02-01T11:33:47;101275.22;;;7.12;86.03
2178;BME280;1095;50.992;6.798;2023-02-01T11:36:17;101266.72;;;7.21;85.63
2178;BME280;1095;50.992;6.798;2023-02-01T11:38:47;101262.69;;;7.28;85.34
2178;BME280;1095;50.992;6.798;2023-02-01T11:41:22;101274.16;;;7.15;85.25
2178;BME280;1095;50.992;6.798;2023-02-01T11:43:54;101267.66;;;7.20;85.45
2178;BME280;1095;50.992;6.798;2023-02-01T11:46:24;101257.59;;;7.16;85.10
2178;BME280;1095;50.992;6.798;2023-02-01T11:48:54;101255.59;;;7.30;84.59
2178;BME280;1095;50.992;6.798;2023-02-01T11:51:32;101238.44;;;7.28;84.73
2178;BME280;1095;50.992;6.798;2023-02-01T11:54:12;101245.91;;;7.21;84.34
2178;BME280;1095;50.992;6.798;2023-02-01T11:56:47;101260.69;;;7.10;84.59
2178;BME280;1095;50.992;6.798;2023-02-01T11:59:26;101240.22;;;6.94;84.50
2178;BME280;1095;50.992;6.798;2023-02-01T12:02:39;101241.28;;;6.91;84.93
2178;BME280;1095;50.992;6.798;2023-02-01T12:05:14;101234.31;;;6.92;85.41
2178;BME280;1095;50.992;6.798;2023-02-01T12:08:02;101222.03;;;6.94;85.32
2178;BME280;1095;50.992;6.798;2023-02-01T12:10:42;101236.09;;;6.91;85.71
2178;BME280;1095;50.992;6.798;2023-02-01T12:13:20;101233.59;;;6.90;86.08
2178;BME280;1095;50.992;6.798;2023-02-01T12:16:00;101222.38;;;6.89;85.89
2178;BME280;1095;50.992;6.798;2023-02-01T12:18:57;101201.31;;;6.92;85.37
2178;BME280;1095;50.992;6.798;2023-02-01T12:21:35;101223.22;;;7.01;85.14
2178;BME280;1095;50.992;6.798;2023-02-01T12:24:19;101220.03;;;7.09;85.41
2178;BME280;1095;50.992;6.798;2023-02-01T12:26:55;101215.75;;;7.08;85.14
2178;BME280;1095;50.992;6.798;2023-02-01T12:29:52;101216.91;;;7.15;85.27
2178;BME280;1095;50.992;6.798;2023-02-01T12:32:35;101226.38;;;7.27;85.03
2178;BME280;1095;50.992;6.798;2023-02-01T12:35:23;101209.09;;;7.26;84.90
2178;BME280;1095;50.992;6.798;2023-02-01T12:38:04;101208.13;;;7.38;84.95
2178;BME280;1095;50.992;6.798;2023-02-01T12:40:45;101215.72;;;7.41;84.66
2178;BME280;1095;50.992;6.798;2023-02-01T12:43:17;101207.69;;;7.22;84.37
2178;BME280;1095;50.992;6.798;2023-02-01T12:45:51;101207.31;;;7.15;84.42
2178;BME280;1095;50.992;6.798;2023-02-01T12:48:26;101190.09;;;7.03;84.96
2178;BME280;1095;50.992;6.798;2023-02-01T12:50:56;101198.72;;;7.04;84.85
2178;BME280;1095;50.992;6.798;2023-02-01T12:53:42;101202.28;;;7.03;85.31
2178;BME280;1095;50.992;6.798;2023-02-01T12:56:15;101194.81;;;6.98;85.51
2178;BME280;1095;50.992;6.798;2023-02-01T12:58:47;101185.47;;;6.95;85.23
2178;BME280;1095;50.992;6.798;2023-02-01T13:01:20;101177.56;;;6.97;85.21
2178;BME280;1095;50.992;6.798;2023-02-01T13:03:54;101175.91;;;6.96;85.15
2178;BME280;1095;50.992;6.798;2023-02-01T13:06:25;101174.13;;;6.96;85.55
2178;BME280;1095;50.992;6.798;2023-02-01T13:08:57;101167.75;;;7.01;85.35
2178;BME280;1095;50.992;6.798;2023-02-01T13:11:31;101166.31;;;6.96;85.52
2178;BME280;1095;50.992;6.798;2023-02-01T13:14:01;101165.25;;;6.99;85.26
2178;BME280;1095;50.992;6.798;2023-02-01T13:16:35;101164.91;;;7.04;85.19
2178;BME280;1095;50.992;6.798;2023-02-01T13:19:10;101161.59;;;7.02;85.46
2178;BME280;1095;50.992;6.798;2023-02-01T13:21:43;101163.13;;;7.04;85.19
2178;BME280;1095;50.992;6.798;2023-02-01T13:24:23;101144.78;;;7.06;84.91
2178;BME280;1095;50.992;6.798;2023-02-01T13:26:55;101137.81;;;7.06;85.12
2178;BME280;1095;50.992;6.798;2023-02-01T13:29:23;101159.34;;;7.08;85.37
2178;BME280;1095;50.992;6.798;2023-02-01T13:32:13;101157.91;;;7.04;85.70
2178;BME280;1095;50.992;6.798;2023-02-01T13:35:03;101151.06;;;7.03;85.44
2178;BME280;1095;50.992;6.798;2023-02-01T13:37:48;101160.63;;;7.03;85.89
2178;BME280;1095;50.992;6.798;2023-02-01T13:40:36;101149.03;;;7.07;85.85
2178;BME280;1095;50.992;6.798;2023-02-01T13:43:10;101147.50;;;7.04;86.02
2178;BME280;1095;50.992;6.798;2023-02-01T13:45:44;101146.44;;;7.07;86.41
2178;BME280;1095;50.992;6.798;2023-02-01T13:48:17;101155.75;;;7.09;86.02
2178;BME280;1095;50.992;6.798;2023-02-01T13:50:50;101147.00;;;7.10;85.75
2178;BME280;1095;50.992;6.798;2023-02-01T13:53:23;101139.78;;;7.14;85.55
2178;BME280;1095;50.992;6.798;2023-02-01T13:55:56;101138.47;;;7.19;85.18
2178;BME280;1095;50.992;6.798;2023-02-01T13:58:32;101141.06;;;7.19;84.89
2178;BME280;1095;50.992;6.798;2023-02-01T14:01:33;101139.31;;;7.20;84.94
2178;BME280;1095;50.992;6.798;2023-02-01T14:04:05;101127.22;;;7.19;84.60
2178;BME280;1095;50.992;6.798;2023-02-01T14:06:44;101132.06;;;7.23;84.15
2178;BME280;1095;50.992;6.798;2023-02-01T14:09:15;101143.91;;;7.27;83.88
2178;BME280;1095;50.992;6.798;2023-02-01T14:11:45;101137.03;;;7.26;84.21
2178;BME280;1095;50.992;6.798;2023-02-01T14:14:45;101137.63;;;7.30;83.58
2178;BME280;1095;50.992;6.798;2023-02-01T14:17:35;101131.34;;;7.32;83.69
2178;BME280;1095;50.992;6.798;2023-02-01T14:23:26;101156.31;;;7.35;83.52
2178;BME280;1095;50.992;6.798;2023-02-01T14:26:17;101147.56;;;7.36;83.54
2178;BME280;1095;50.992;6.798;2023-02-01T14:28:53;101140.81;;;7.33;83.61
2178;BME280;1095;50.992;6.798;2023-02-01T14:34:31;101147.31;;;7.39;83.23
2178;BME280;1095;50.992;6.798;2023-02-01T14:37:00;101150.28;;;7.35;83.08
2178;BME280;1095;50.992;6.798;2023-02-01T14:39:31;101153.72;;;7.35;83.10
2178;BME280;1095;50.992;6.798;2023-02-01T14:42:03;101159.88;;;7.34;83.42
2178;BME280;1095;50.992;6.798;2023-02-01T14:44:33;101171.09;;;7.35;83.37
2178;BME280;1095;50.992;6.798;2023-02-01T14:47:32;101165.78;;;7.36;83.45
2178;BME280;1095;50.992;6.798;2023-02-01T14:50:27;101159.16;;;7.32;83.73
2178;BME280;1095;50.992;6.798;2023-02-01T14:53:17;101163.06;;;7.38;83.19
2178;BME280;1095;50.992;6.798;2023-02-01T14:55:50;101150.88;;;7.38;82.93
2178;BME280;1095;50.992;6.798;2023-02-01T14:58:31;101172.50;;;7.39;83.25
2178;BME280;1095;50.992;6.798;2023-02-01T15:01:02;101166.00;;;7.44;82.96
2178;BME280;1095;50.992;6.798;2023-02-01T15:03:39;101167.19;;;7.40;83.17
2178;BME280;1095;50.992;6.798;2023-02-01T15:06:21;101169.91;;;7.39;83.18
2178;BME280;1095;50.992;6.798;2023-02-01T15:08:52;101171.94;;;7.35;83.14
2178;BME280;1095;50.992;6.798;2023-02-01T15:11:21;101165.44;;;7.29;83.43
2178;BME280;1095;50.992;6.798;2023-02-01T15:13:49;101179.28;;;7.30;83.54
2178;BME280;1095;50.992;6.798;2023-02-01T15:16:17;101184.34;;;7.31;83.16
2178;BME280;1095;50.992;6.798;2023-02-01T15:18:43;101188.84;;;7.29;83.57
2178;BME280;1095;50.992;6.798;2023-02-01T15:21:17;101192.16;;;7.31;83.63
2178;BME280;1095;50.992;6.798;2023-02-01T15:23:44;101202.47;;;7.33;83.74
2178;BME280;1095;50.992;6.798;2023-02-01T15:26:24;101197.50;;;7.30;83.88
2178;BME280;1095;50.992;6.798;2023-02-01T15:28:51;101202.81;;;7.28;84.46
2178;BME280;1095;50.992;6.798;2023-02-01T15:31:31;101200.34;;;7.27;84.46
2178;BME280;1095;50.992;6.798;2023-02-01T15:33:58;101196.78;;;7.39;84.00
2178;BME280;1095;50.992;6.798;2023-02-01T15:36:26;101190.63;;;7.40;83.61
2178;BME280;1095;50.992;6.798;2023-02-01T15:39:16;101188.25;;;7.37;83.59
2178;BME280;1095;50.992;6.798;2023-02-01T15:41:47;101176.44;;;7.33;83.52
2178;BME280;1095;50.992;6.798;2023-02-01T15:44:18;101189.44;;;7.33;83.81